Time;durP1;ratioP1;P1;durP2;ratioP2;P2;SDS_P1;SDS_P2;PMS_P1;PMS_P2;Temp;Humidity;BMP_temperature;BMP_pressure;BME280_temperature;BME280_humidity;BME280_pressure;Samples;Min_cycle;Max_cycle;Signal;HPM_P1;HPM_P2
2022/08/13 00:01:19;;;;;;;13.52;4.55;;;;;;;21.52;57.53;100343.34;5003176;28;20096;-47
2022/08/13 00:03:51;;;;;;;9.13;4.85;;;;;;;21.47;57.48;100333.97;5037246;28;20041;-49
2022/08/13 00:07:21;;;;;;;10.85;5.43;;;;;;;21.41;57.75;100343.00;5012398;28;20104;-48
2022/08/13 00:09:22;;;;;;;10.38;5.22;;;;;;;21.36;57.34;100347.56;5000424;28;20137;-46
2022/08/13 00:14:59;;;;;;;9.57;4.53;;;;;;;21.28;57.62;100348.75;4984621;28;20049;-51
2022/08/13 00:17:28;;;;;;;11.13;5.35;;;;;;;21.26;58.06;100348.00;5004966;28;20141;-50
2022/08/13 00:20:17;;;;;;;11.85;5.75;;;;;;;21.22;58.32;100341.13;5009936;28;20049;-48
2022/08/13 00:22:45;;;;;;;9.65;4.82;;;;;;;21.18;58.12;100340.41;5000799;28;20046;-46
2022/08/13 00:25:26;;;;;;;11.32;5.40;;;;;;;21.13;58.20;100341.50;5021142;28;20052;-49
2022/08/13 00:28:14;;;;;;;12.35;5.47;;;;;;;21.11;58.32;100340.75;5007188;28;20053;-53
2022/08/13 00:30:42;;;;;;;10.57;5.30;;;;;;;21.05;58.57;100337.44;4989289;28;20046;-50
2022/08/13 00:33:17;;;;;;;13.15;5.75;;;;;;;21.00;58.79;100338.53;5017318;28;20699;-47
2022/08/13 00:35:54;;;;;;;13.30;5.22;;;;;;;20.95;59.00;100338.75;4994118;28;20050;-50
2022/08/13 00:38:28;;;;;;;12.48;5.28;;;;;;;20.90;58.92;100330.16;5004036;28;20137;-47
2022/08/13 00:41:03;;;;;;;10.20;4.47;;;;;;;20.88;58.91;100337.25;5002761;28;20054;-49
2022/08/13 00:43:33;;;;;;;8.90;4.75;;;;;;;20.87;59.22;100338.19;4996562;28;20056;-49
2022/08/13 00:46:02;;;;;;;13.35;4.95;;;;;;;20.87;58.98;100330.28;5000479;28;20504;-49
2022/08/13 00:48:47;;;;;;;13.75;5.38;;;;;;;20.84;59.10;100330.41;5035185;28;20485;-49
2022/08/13 00:51:22;;;;;;;11.43;4.70;;;;;;;20.83;58.92;100328.69;5015504;28;20388;-48
2022/08/13 00:54:15;;;;;;;12.52;5.20;;;;;;;20.78;59.21;100334.97;5028042;28;20124;-52
2022/08/13 00:56:43;;;;;;;12.77;5.07;;;;;;;20.76;59.25;100323.69;4999757;28;20428;-50
2022/08/13 00:59:12;;;;;;;10.52;5.25;;;;;;;20.76;59.20;100322.81;5001376;28;20057;-46
2022/08/13 01:01:42;;;;;;;8.95;4.75;;;;;;;20.76;59.78;100318.41;4996941;28;20449;-49
2022/08/13 01:04:21;;;;;;;12.20;4.55;;;;;;;20.73;59.58;100317.69;5003467;28;20461;-47
2022/08/13 01:06:55;;;;;;;16.50;5.68;;;;;;;20.70;59.74;100317.81;5012996;28;20053;-50
2022/08/13 01:09:29;;;;;;;11.23;4.70;;;;;;;20.68;59.58;100320.50;5019440;28;20049;-54
2022/08/13 01:12:19;;;;;;;11.95;5.00;;;;;;;20.64;59.64;100318.94;5026084;28;20095;-47
2022/08/13 01:14:48;;;;;;;14.93;5.22;;;;;;;20.64;59.61;100313.66;5019228;28;20413;-46
2022/08/13 01:17:22;;;;;;;11.60;4.95;;;;;;;20.60;60.06;100312.91;5014824;28;20095;-58
2022/08/13 01:20:09;;;;;;;11.50;6.20;;;;;;;20.55;60.10;100317.50;5013528;28;20567;-49
2022/08/13 01:22:38;;;;;;;10.82;5.05;;;;;;;20.50;60.27;100317.69;5018114;28;20050;-54
2022/08/13 01:25:10;;;;;;;12.07;5.40;;;;;;;20.45;60.25;100309.13;5047941;28;20077;-47
2022/08/13 01:27:41;;;;;;;11.32;4.95;;;;;;;20.41;60.56;100318.91;5018765;28;20058;-52
2022/08/13 01:30:14;;;;;;;9.43;6.10;;;;;;;20.38;60.50;100318.19;5014275;28;20045;-49
2022/08/13 01:32:43;;;;;;;11.57;5.13;;;;;;;20.35;60.72;100318.31;5007534;28;20041;-51
2022/08/13 01:35:22;;;;;;;12.85;5.45;;;;;;;20.30;61.20;100315.88;5019787;28;20103;-51
2022/08/13 01:37:53;;;;;;;15.63;5.35;;;;;;;20.26;60.89;100320.38;5024851;28;20486;-50
2022/08/13 01:40:31;;;;;;;14.13;6.05;;;;;;;20.23;61.21;100315.22;5016802;28;20057;-49
2022/08/13 01:42:59;;;;;;;11.85;5.10;;;;;;;20.20;61.29;100315.38;5015396;28;20057;-46
2022/08/13 01:45:45;;;;;;;10.32;5.00;;;;;;;20.17;61.38;100313.69;5006331;28;20137;-45
2022/08/13 01:51:32;;;;;;;9.82;4.95;;;;;;;20.12;60.89;100312.16;5012302;28;20053;-50
2022/08/13 01:54:11;;;;;;;10.15;5.10;;;;;;;20.13;61.02;100319.16;5018473;28;20049;-47
2022/08/13 01:57:01;;;;;;;11.13;4.70;;;;;;;20.11;61.03;100315.72;5039501;28;20066;-45
2022/08/13 01:59:32;;;;;;;12.50;5.63;;;;;;;20.10;61.31;100306.13;5021190;28;20072;-48
2022/08/13 02:02:23;;;;;;;10.93;6.03;;;;;;;20.04;61.36;100315.94;5020429;28;20049;-46
2022/08/13 02:05:11;;;;;;;10.50;5.70;;;;;;;20.01;61.11;100313.44;5022336;28;20403;-51
2022/08/13 02:08:00;;;;;;;9.85;5.32;;;;;;;19.94;61.53;100316.31;5024796;28;20089;-48
2022/08/13 02:10:35;;;;;;;12.07;6.18;;;;;;;19.89;61.43;100317.34;5016520;28;20045;-47
2022/08/13 02:13:06;;;;;;;10.70;5.70;;;;;;;19.85;61.48;100317.53;5014525;28;20116;-47
2022/08/13 02:15:34;;;;;;;14.15;5.60;;;;;;;19.81;61.36;100318.56;5024135;28;20049;-47
2022/08/13 02:18:17;;;;;;;10.23;5.65;;;;;;;19.75;61.44;100304.72;5011623;28;20038;-48
2022/08/13 02:20:47;;;;;;;11.32;5.03;;;;;;;19.73;61.84;100310.97;5015585;28;20097;-45
2022/08/13 02:23:20;;;;;;;9.07;5.15;;;;;;;19.71;61.53;100318.91;5019071;28;20050;-47
2022/08/13 02:26:08;;;;;;;8.55;5.40;;;;;;;19.64;61.27;100309.53;5017215;28;20082;-47
2022/08/13 02:28:39;;;;;;;14.18;5.63;;;;;;;19.61;61.23;100301.75;4990204;28;20046;-51
2022/08/13 02:31:08;;;;;;;10.68;4.60;;;;;;;19.58;61.27;100307.97;5002027;28;20141;-46
2022/08/13 02:33:56;;;;;;;8.23;4.75;;;;;;;19.55;61.26;100309.88;5021503;28;20145;-48
2022/08/13 02:36:25;;;;;;;11.73;5.03;;;;;;;19.52;61.64;100314.31;5021680;28;20132;-48
2022/08/13 02:39:05;;;;;;;12.93;5.45;;;;;;;19.43;61.60;100298.03;5018883;28;20045;-49
2022/08/13 02:41:48;;;;;;;15.40;5.80;;;;;;;19.44;62.14;100300.59;5014411;28;20133;-46
2022/08/13 02:44:21;;;;;;;10.73;5.78;;;;;;;19.40;61.65;100304.25;5018478;28;20054;-47
2022/08/13 02:46:59;;;;;;;10.38;5.72;;;;;;;19.38;61.75;100300.81;4999381;28;20054;-46
2022/08/13 02:49:25;;;;;;;13.32;4.95;;;;;;;19.37;62.30;100304.34;5011178;28;20041;-46
2022/08/13 02:52:11;;;;;;;11.77;5.22;;;;;;;19.39;61.85;100310.44;5015377;28;20064;-50
2022/08/13 02:54:40;;;;;;;9.73;5.28;;;;;;;19.41;62.35;100298.06;5020515;28;20091;-50
2022/08/13 02:57:22;;;;;;;11.00;4.72;;;;;;;19.40;62.44;100296.38;5020099;28;20470;-50
2022/08/13 02:59:49;;;;;;;13.60;5.70;;;;;;;19.42;62.70;100297.16;5015624;28;20118;-46
2022/08/13 03:02:37;;;;;;;13.30;6.40;;;;;;;19.43;62.75;100301.53;5015291;28;20519;-47
2022/08/13 03:05:08;;;;;;;15.77;6.00;;;;;;;19.41;63.62;100298.06;5015966;28;20046;-45
2022/08/13 03:07:41;;;;;;;15.43;6.78;;;;;;;19.37;63.87;100299.09;5014676;28;20127;-45
2022/08/13 03:10:22;;;;;;;14.70;7.00;;;;;;;19.34;64.20;100296.56;5014611;28;20053;-47
2022/08/13 03:13:08;;;;;;;13.95;6.88;;;;;;;19.33;64.16;100297.50;5046824;28;20041;-51
2022/08/13 03:15:38;;;;;;;12.43;5.55;;;;;;;19.36;64.28;100302.66;5018291;28;20068;-50
2022/08/13 03:18:25;;;;;;;16.05;6.72;;;;;;;19.36;64.00;100307.91;5019908;28;20466;-51
2022/08/13 03:21:04;;;;;;;14.38;5.85;;;;;;;19.35;64.26;100306.19;5023684;28;20049;-53
2022/08/13 03:23:40;;;;;;;16.08;6.65;;;;;;;19.35;63.67;100300.94;5019035;28;20103;-49
2022/08/13 03:26:11;;;;;;;18.67;6.40;;;;;;;19.39;63.75;100302.53;5018579;28;20056;-51
2022/08/13 03:28:39;;;;;;;16.10;6.68;;;;;;;19.40;63.84;100296.38;5029751;28;20141;-48
2022/08/13 03:31:22;;;;;;;20.13;7.45;;;;;;;19.42;64.01;100297.16;5029029;28;20064;-52
2022/08/13 03:33:50;;;;;;;20.67;7.72;;;;;;;19.43;64.07;100293.63;5023374;28;20065;-48
2022/08/13 03:36:31;;;;;;;19.10;6.75;;;;;;;19.44;64.15;100295.34;5028373;28;20049;-52
2022/08/13 03:38:59;;;;;;;19.35;6.95;;;;;;;19.44;64.20;100290.09;5023233;28;20066;-51
2022/08/13 03:41:26;;;;;;;21.77;7.90;;;;;;;19.44;64.15;100290.09;5020240;28;20045;-48
2022/08/13 03:43:54;;;;;;;28.20;8.55;;;;;;;19.44;64.57;100292.72;5020974;28;20049;-48
2022/08/13 03:46:24;;;;;;;22.77;8.13;;;;;;;19.43;64.82;100292.78;5021612;28;20107;-53
2022/08/13 03:48:53;;;;;;;64.47;10.50;;;;;;;19.40;64.70;100293.75;5011841;28;20046;-49
2022/08/13 03:51:22;;;;;;;43.75;8.65;;;;;;;19.36;65.03;100298.22;5026478;28;20099;-52
2022/08/13 03:54:02;;;;;;;24.80;8.30;;;;;;;19.33;65.23;100303.63;5015820;28;20077;-48
2022/08/13 03:56:31;;;;;;;22.58;7.75;;;;;;;19.34;65.29;100304.47;5018832;28;20521;-50
2022/08/13 03:59:01;;;;;;;15.30;6.80;;;;;;;19.34;65.60;100304.47;5018550;28;20136;-50
2022/08/13 04:01:30;;;;;;;28.15;7.25;;;;;;;19.33;65.41;100298.38;5022450;28;20652;-52
2022/08/13 04:03:57;;;;;;;26.98;7.53;;;;;;;19.30;66.14;100298.47;5025273;28;20071;-47
2022/08/13 04:06:25;;;;;;;18.27;7.43;;;;;;;19.30;65.98;100297.59;5019981;28;20434;-45
2022/08/13 04:08:53;;;;;;;30.10;7.47;;;;;;;19.29;66.38;100298.53;5017331;28;20128;-47
2022/08/13 04:11:22;;;;;;;25.38;7.13;;;;;;;19.29;65.78;100293.28;5018368;28;20751;-49
2022/08/13 04:13:53;;;;;;;15.38;7.72;;;;;;;19.26;66.61;100296.88;4992038;28;20057;-47
2022/08/13 04:16:33;;;;;;;24.38;6.72;;;;;;;19.20;66.72;100292.69;4988789;28;20126;-50
2022/08/13 04:19:01;;;;;;;26.35;6.80;;;;;;;19.13;67.04;100291.19;5000330;28;20147;-45
2022/08/13 04:21:31;;;;;;;27.00;7.60;;;;;;;19.09;66.83;100284.31;5012114;28;20124;-51
2022/08/13 04:24:02;;;;;;;100.97;11.23;;;;;;;19.07;67.10;100286.13;5022521;28;20041;-50
2022/08/13 04:26:30;;;;;;;40.85;7.78;;;;;;;19.04;67.81;100280.97;5016621;28;20500;-47
2022/08/13 04:29:02;;;;;;;17.67;7.53;;;;;;;19.02;67.46;100279.25;5024473;28;20058;-47
2022/08/13 04:31:29;;;;;;;25.85;8.27;;;;;;;18.97;67.95;100273.31;5025203;28;20042;-48
2022/08/13 04:34:19;;;;;;;27.88;8.82;;;;;;;18.96;67.56;100279.47;5014183;28;20069;-49
2022/08/13 04:37:08;;;;;;;19.48;7.95;;;;;;;18.99;67.36;100270.63;5015470;28;20046;-47
2022/08/13 04:39:47;;;;;;;42.38;7.63;;;;;;;18.99;68.27;100268.84;5024381;28;20109;-47
2022/08/13 04:42:53;;;;;;;59.47;9.77;;;;;;;18.93;67.88;100266.44;5015253;28;20069;-50
2022/08/13 04:45:22;;;;;;;47.25;8.45;;;;;;;18.98;68.14;100269.75;5024037;28;20147;-47
2022/08/13 04:47:53;;;;;;;42.90;8.27;;;;;;;19.01;67.99;100267.03;5017634;28;20397;-48
2022/08/13 04:50:21;;;;;;;51.50;9.18;;;;;;;19.01;68.47;100277.53;5050892;28;20146;-47
2022/08/13 04:52:49;;;;;;;49.60;10.45;;;;;;;19.01;68.44;100267.03;5022252;28;20045;-48
2022/08/13 04:55:17;;;;;;;38.25;9.20;;;;;;;19.01;68.65;100263.53;5010099;28;20097;-49
2022/08/13 04:57:45;;;;;;;45.50;8.88;;;;;;;18.99;68.39;100263.59;5002695;28;20053;-48
2022/08/13 05:00:32;;;;;;;16.55;7.72;;;;;;;19.01;68.58;100269.66;4996662;28;20145;-45
2022/08/13 05:03:11;;;;;;;22.73;8.50;;;;;;;18.98;68.92;100272.38;4991828;28;20408;-46
2022/08/13 05:05:42;;;;;;;39.08;8.48;;;;;;;19.05;68.82;100274.81;4998323;28;20077;-46
2022/08/13 05:08:15;;;;;;;42.47;9.20;;;;;;;19.04;68.50;100275.72;5003980;28;20053;-52
2022/08/13 05:10:43;;;;;;;;;;;;;;;18.86;68.47;100273.69;4996107;28;20080;-46
2022/08/13 05:16:18;;;;;;;20.05;7.93;;;;;;;19.09;68.26;100271.19;4999272;28;20392;-51
2022/08/13 05:18:54;;;;;;;24.80;9.27;;;;;;;19.15;68.11;100273.59;4983608;28;20704;-47
2022/08/13 05:21:23;;;;;;;34.20;9.10;;;;;;;19.21;68.36;100272.53;4983142;28;20145;-48
2022/08/13 05:23:59;;;;;;;23.00;8.75;;;;;;;19.24;68.46;100278.53;4984259;28;20081;-48
2022/08/13 05:26:45;;;;;;;24.08;8.95;;;;;;;19.29;68.17;100259.13;4982857;28;20051;-55
2022/08/13 05:29:32;;;;;;;18.90;7.68;;;;;;;19.31;67.73;100257.28;4985856;28;20082;-48
2022/08/13 05:32:16;;;;;;;25.23;8.25;;;;;;;19.34;67.54;100263.31;4985345;28;20101;-46
2022/08/13 05:34:43;;;;;;;21.00;7.80;;;;;;;19.36;67.66;100255.38;4984261;28;20162;-50
2022/08/13 05:37:16;;;;;;;18.60;7.20;;;;;;;19.39;67.70;100255.28;4986106;28;20104;-49
2022/08/13 05:40:03;;;;;;;18.05;7.35;;;;;;;19.40;67.70;100251.72;4982526;28;20130;-45
2022/08/13 05:42:33;;;;;;;15.60;6.75;;;;;;;19.43;67.53;100258.63;4984887;28;20046;-46
2022/08/13 05:45:00;;;;;;;16.98;6.65;;;;;;;19.45;67.88;100248.94;4982233;28;20050;-46
2022/08/13 05:47:36;;;;;;;22.48;8.18;;;;;;;19.47;67.49;100261.09;4980879;28;20069;-46
2022/08/13 05:50:13;;;;;;;32.92;9.32;;;;;;;19.48;67.50;100260.19;4984804;28;20105;-48
2022/08/13 05:52:43;;;;;;;19.73;7.93;;;;;;;19.50;67.54;100263.63;4982641;28;20113;-46
2022/08/13 05:55:15;;;;;;;16.50;7.38;;;;;;;19.55;67.51;100260.81;4980688;28;20049;-49
2022/08/13 05:58:03;;;;;;;19.38;8.23;;;;;;;19.59;67.67;100261.56;4984683;28;20133;-52
2022/08/13 06:03:38;;;;;;;18.17;7.43;;;;;;;19.63;67.46;100252.66;4981228;28;20590;-49
2022/08/13 06:06:25;;;;;;;18.27;7.13;;;;;;;19.62;67.59;100259.66;4979864;28;20133;-47
2022/08/13 06:09:01;;;;;;;16.42;8.00;;;;;;;19.62;67.19;100257.03;4985232;28;20042;-49
2022/08/13 06:11:31;;;;;;;18.15;7.38;;;;;;;19.61;67.46;100246.59;4982733;28;20054;-49
2022/08/13 06:14:20;;;;;;;15.88;6.53;;;;;;;19.62;67.14;100248.31;4983091;28;20117;-49
2022/08/13 06:16:51;;;;;;;15.10;6.97;;;;;;;19.63;67.17;100247.41;4982152;28;20404;-49
2022/08/13 06:19:23;;;;;;;12.68;6.60;;;;;;;19.63;67.70;100242.13;4982624;28;20073;-52
2022/08/13 06:21:56;;;;;;;16.73;6.47;;;;;;;19.67;67.06;100235.00;4983043;28;20106;-50
2022/08/13 06:24:27;;;;;;;14.85;6.40;;;;;;;19.72;66.92;100238.31;4983120;28;20178;-46
2022/08/13 06:26:55;;;;;;;17.15;5.50;;;;;;;19.78;67.20;100241.56;4974494;28;20050;-46
2022/08/13 06:29:23;;;;;;;13.73;7.28;;;;;;;19.86;67.20;100248.28;4971748;28;20379;-51
2022/08/13 06:31:56;;;;;;;14.60;6.93;;;;;;;19.90;67.17;100247.25;4970222;28;20058;-48
2022/08/13 06:34:24;;;;;;;12.52;6.20;;;;;;;19.95;67.03;100247.94;4968638;28;20085;-50
2022/08/13 06:37:03;;;;;;;12.00;5.72;;;;;;;19.99;67.16;100241.66;4968754;28;20049;-48
2022/08/13 06:39:32;;;;;;;14.93;5.80;;;;;;;20.12;66.59;100244.66;4970020;28;20138;-51
2022/08/13 06:42:03;;;;;;;14.07;6.20;;;;;;;20.48;67.09;100240.63;4970880;28;20077;-52
2022/08/13 06:44:32;;;;;;;12.20;6.03;;;;;;;20.91;66.99;100243.22;4969801;28;20039;-49
2022/08/13 06:47:04;;;;;;;9.18;5.68;;;;;;;21.32;65.85;100236.22;4967881;28;20170;-49
2022/08/13 06:49:33;;;;;;;12.63;4.95;;;;;;;21.66;65.70;100247.00;4969541;28;20136;-51
2022/08/13 06:52:20;;;;;;;14.77;5.18;;;;;;;21.98;65.09;100236.75;4969643;28;20070;-53
2022/08/13 06:54:48;;;;;;;10.98;5.05;;;;;;;22.34;64.45;100242.97;4971073;28;20101;-51
2022/08/13 06:57:19;;;;;;;8.77;4.50;;;;;;;22.65;63.72;100243.25;4972402;28;20133;-48
2022/08/13 06:59:49;;;;;;;8.38;4.18;;;;;;;22.96;63.39;100239.91;4969752;28;20050;-51
2022/08/13 07:02:37;;;;;;;8.90;4.72;;;;;;;23.40;62.30;100234.19;4968286;28;20129;-49
2022/08/13 07:05:05;;;;;;;11.70;4.30;;;;;;;23.76;61.97;100230.44;4969643;28;20050;-52
2022/08/13 07:07:35;;;;;;;10.35;4.32;;;;;;;24.04;60.89;100234.19;4969731;28;20074;-48
2022/08/13 07:10:03;;;;;;;7.45;4.07;;;;;;;24.26;60.05;100236.47;4967860;28;20051;-49
2022/08/13 07:12:32;;;;;;;8.27;3.95;;;;;;;24.45;58.92;100230.13;4967766;28;20073;-53
2022/08/13 07:14:59;;;;;;;;;;;;;;;24.62;58.30;100223.00;4969564;28;20058;-53
2022/08/13 07:17:28;;;;;;;8.50;3.70;;;;;;;24.71;57.98;100232.19;4969509;28;19922;-54
2022/08/13 07:20:00;;;;;;;7.35;4.45;;;;;;;24.83;58.12;100231.47;4968277;28;20050;-52
2022/08/13 07:22:34;;;;;;;7.30;3.45;;;;;;;25.06;57.34;100237.19;4986438;28;20054;-51
2022/08/13 07:25:23;;;;;;;9.80;3.53;;;;;;;25.31;57.14;100235.69;4988668;28;20117;-53
2022/08/13 07:28:15;;;;;;;8.98;4.18;;;;;;;25.60;56.56;100240.97;4989900;28;20522;-47
2022/08/13 07:31:05;;;;;;;10.20;3.75;;;;;;;25.92;55.55;100230.13;4989724;28;20046;-49
2022/08/13 07:33:42;;;;;;;7.15;3.40;;;;;;;26.11;55.09;100234.22;4989675;28;20043;-47
2022/08/13 07:36:27;;;;;;;8.40;3.03;;;;;;;26.33;54.97;100227.53;4986758;28;20042;-50
2022/08/13 07:38:56;;;;;;;10.93;3.15;;;;;;;26.66;54.60;100234.19;4985883;28;20053;-47
2022/08/13 07:41:27;;;;;;;8.70;2.80;;;;;;;26.97;53.43;100230.38;4985193;28;20053;-50
2022/08/13 07:43:58;;;;;;;3.97;2.35;;;;;;;27.32;53.86;100229.75;4988646;28;20050;-48
2022/08/13 07:46:35;;;;;;;7.05;3.10;;;;;;;27.67;52.36;100231.72;4989373;28;20054;-53
2022/08/13 07:49:09;;;;;;;12.52;3.20;;;;;;;27.91;51.47;100230.03;4988091;28;20069;-51
2022/08/13 07:51:37;;;;;;;7.53;3.08;;;;;;;28.02;50.58;100235.41;4989755;28;20042;-49
2022/08/13 07:54:06;;;;;;;6.95;4.75;;;;;;;28.14;50.58;100225.69;4989483;28;20601;-54
2022/08/13 07:56:35;;;;;;;10.88;3.38;;;;;;;28.32;50.41;100230.59;4987562;28;20054;-51
2022/08/13 07:59:07;;;;;;;7.25;2.78;;;;;;;28.42;49.60;100223.63;4987678;28;20081;-50
2022/08/13 08:04:24;;;;;;;9.45;3.33;;;;;;;28.90;48.86;100227.13;5014985;28;20399;-45
2022/08/13 08:06:57;;;;;;;5.53;2.72;;;;;;;29.11;47.57;100229.13;5001621;28;20100;-49
2022/08/13 08:09:29;;;;;;;10.07;4.72;;;;;;;29.23;46.85;100225.47;5002552;28;20694;-46
2022/08/13 08:14:54;;;;;;;5.72;3.03;;;;;;;29.57;46.70;100229.09;4984569;28;20089;-47
2022/08/13 08:17:26;;;;;;;4.10;2.47;;;;;;;29.67;46.68;100224.72;4999900;28;20060;-46
2022/08/13 08:20:21;;;;;;;7.10;2.92;;;;;;;29.92;46.09;100233.38;4997286;28;20471;-47
2022/08/13 08:23:05;;;;;;;7.78;2.38;;;;;;;30.12;45.78;100233.59;5002994;28;20097;-47
2022/08/13 08:25:38;;;;;;;5.78;3.00;;;;;;;30.29;45.49;100232.19;4996368;28;20065;-47
2022/08/13 08:28:30;;;;;;;8.60;2.63;;;;;;;30.52;44.77;100235.59;4994466;28;20074;-50
2022/08/13 08:31:06;;;;;;;8.25;3.50;;;;;;;30.71;43.94;100228.69;5002126;28;20497;-51
2022/08/13 08:33:55;;;;;;;5.07;2.80;;;;;;;31.01;43.87;100235.09;4999529;28;20077;-54
2022/08/13 08:36:24;;;;;;;5.07;3.08;;;;;;;31.19;43.11;100241.59;4999709;28;20050;-49
2022/08/13 08:45:00;;;;;;;5.07;2.22;;;;;;;31.63;42.11;100236.00;4992272;28;20124;-49
2022/08/13 08:47:33;;;;;;;6.15;2.85;;;;;;;31.77;41.93;100235.63;5003101;28;20101;-49
2022/08/13 08:50:16;;;;;;;8.55;2.40;;;;;;;31.91;41.92;100238.94;4998642;28;20057;-47
2022/08/13 08:56:04;;;;;;;4.78;2.28;;;;;;;32.21;41.53;100244.28;4994175;28;20058;-49
2022/08/13 08:58:36;;;;;;;5.57;3.35;;;;;;;32.44;40.85;100236.78;4991057;28;20058;-46
2022/08/13 09:01:07;;;;;;;5.18;2.63;;;;;;;32.51;40.31;100237.94;4994821;28;20042;-47
2022/08/13 09:03:39;;;;;;;7.80;3.10;;;;;;;32.49;39.78;100233.72;4999532;28;20072;-49
2022/08/13 09:06:23;;;;;;;6.75;2.60;;;;;;;32.49;40.04;100231.88;4995065;28;20152;-50
2022/08/13 09:09:13;;;;;;;6.88;2.85;;;;;;;32.62;39.79;100223.50;4994029;28;20054;-53
2022/08/13 09:11:47;;;;;;;6.20;2.60;;;;;;;32.90;40.05;100225.44;4991233;28;20050;-52
2022/08/13 09:14:25;;;;;;;5.13;2.65;;;;;;;33.06;39.26;100236.41;4994255;28;20137;-51
2022/08/13 09:16:55;;;;;;;4.50;2.53;;;;;;;33.21;39.06;100228.72;4982581;28;20084;-50
2022/08/13 09:19:23;;;;;;;9.50;2.58;;;;;;;33.38;39.05;100238.81;4982174;28;20127;-52
2022/08/13 09:22:14;;;;;;;6.43;2.55;;;;;;;33.49;38.73;100238.59;4985801;28;20066;-50
2022/08/13 09:24:46;;;;;;;4.80;2.53;;;;;;;33.65;38.49;100227.25;4984202;28;20042;-51
2022/08/13 09:27:18;;;;;;;5.50;2.25;;;;;;;33.69;37.80;100233.13;4987723;28;20145;-51
2022/08/13 09:29:50;;;;;;;5.07;2.50;;;;;;;33.89;38.22;100231.16;4990756;28;20050;-52
2022/08/13 09:32:28;;;;;;;3.47;1.98;;;;;;;34.12;38.41;100235.25;4985051;28;20049;-52
2022/08/13 09:35:00;;;;;;;5.75;3.42;;;;;;;34.21;36.96;100227.13;4966552;28;20383;-48
2022/08/13 09:37:30;;;;;;;4.50;2.80;;;;;;;34.16;37.07;100226.75;4975709;28;20055;-51
2022/08/13 09:40:17;;;;;;;8.23;2.55;;;;;;;34.25;36.51;100224.97;4982073;28;20130;-54
2022/08/13 09:43:10;;;;;;;4.50;2.58;;;;;;;34.21;36.14;100223.59;4986829;28;20439;-52
2022/08/13 09:45:38;;;;;;;5.80;2.80;;;;;;;34.31;36.00;100223.50;4984205;28;20057;-50
2022/08/13 09:48:12;;;;;;;4.03;2.63;;;;;;;34.26;36.13;100217.72;4987805;28;20128;-49
2022/08/13 09:51:00;;;;;;;16.10;3.03;;;;;;;34.41;36.47;100212.66;4985314;28;20574;-51
2022/08/13 09:53:27;;;;;;;9.77;2.50;;;;;;;34.53;36.43;100222.16;4980368;28;20047;-52
2022/08/13 09:55:57;;;;;;;5.07;2.28;;;;;;;34.58;35.77;100209.06;4981860;28;20065;-52
2022/08/13 09:58:23;;;;;;;6.55;2.70;;;;;;;34.60;35.09;100212.44;4988609;28;20061;-51
2022/08/13 10:01:00;;;;;;;7.80;2.47;;;;;;;34.65;35.92;100203.94;4984716;28;20077;-48
2022/08/13 10:03:27;;;;;;;6.63;2.53;;;;;;;34.64;34.96;100206.78;4986979;28;20439;-51
2022/08/13 10:05:57;;;;;;;4.65;2.15;;;;;;;34.67;34.79;100212.69;4979779;28;20043;-53
2022/08/13 10:08:26;;;;;;;4.47;3.40;;;;;;;34.56;35.51;100205.72;4977299;28;20446;-50
2022/08/13 10:11:01;;;;;;;5.10;3.45;;;;;;;34.65;35.83;100203.09;4979983;28;20481;-45
2022/08/13 10:13:33;;;;;;;3.92;2.22;;;;;;;34.61;34.81;100203.38;4983778;28;20046;-50
2022/08/13 10:16:16;;;;;;;4.10;2.28;;;;;;;34.66;34.72;100200.25;4986766;28;20113;-49
2022/08/13 10:18:43;;;;;;;7.20;2.85;;;;;;;34.69;34.98;100204.47;4983829;28;20058;-47
2022/08/13 10:21:12;;;;;;;5.95;3.00;;;;;;;34.75;34.44;100201.16;4978020;28;20046;-50
2022/08/13 10:23:45;;;;;;;6.72;2.60;;;;;;;34.79;34.27;100204.34;4984247;28;20042;-50
2022/08/13 10:26:12;;;;;;;5.47;2.55;;;;;;;34.84;34.34;100205.56;4984155;28;20053;-50
2022/08/13 10:28:40;;;;;;;4.10;2.40;;;;;;;34.84;34.02;100192.09;4985809;28;20051;-49
2022/08/13 10:31:14;;;;;;;4.63;2.60;;;;;;;34.95;34.03;100198.22;4982910;28;20677;-51
2022/08/13 10:34:03;;;;;;;5.20;2.85;;;;;;;34.92;33.76;100199.34;4986505;28;20495;-50
2022/08/13 10:36:34;;;;;;;4.07;2.90;;;;;;;34.96;33.80;100195.38;4974874;28;20494;-50
2022/08/13 10:39:05;;;;;;;6.82;3.42;;;;;;;35.00;34.20;100185.13;4980951;28;20092;-48
2022/08/13 10:41:35;;;;;;;4.55;2.40;;;;;;;35.07;34.04;100179.91;4977548;28;20054;-51
2022/08/13 10:44:22;;;;;;;5.22;2.38;;;;;;;35.18;33.89;100184.22;4983445;28;20073;-54
2022/08/13 10:46:54;;;;;;;5.88;2.95;;;;;;;35.32;33.78;100178.19;4987086;28;20042;-46
2022/08/13 10:49:22;;;;;;;4.60;2.97;;;;;;;35.36;33.58;100168.78;4983993;28;20058;-51
2022/08/13 10:51:49;;;;;;;8.55;3.78;;;;;;;35.51;33.65;100170.81;4982468;28;20696;-51
2022/08/13 10:54:33;;;;;;;4.45;2.95;;;;;;;35.44;33.12;100169.81;4981969;28;20074;-48
2022/08/13 10:57:03;;;;;;;4.88;3.10;;;;;;;35.45;33.40;100166.13;4983681;28;20046;-50
2022/08/13 10:59:33;;;;;;;3.75;2.55;;;;;;;35.54;32.81;100159.72;4988311;28;20069;-53
2022/08/13 11:02:06;;;;;;;6.22;2.70;;;;;;;35.59;33.45;100157.38;4984352;28;20046;-52
2022/08/13 11:04:38;;;;;;;4.85;2.83;;;;;;;35.69;32.63;100159.94;4973493;28;20049;-53
2022/08/13 11:07:17;;;;;;;5.53;2.83;;;;;;;35.67;32.57;100159.28;4978038;28;20061;-54
2022/08/13 11:09:43;;;;;;;5.93;2.83;;;;;;;35.63;32.43;100153.34;4984765;28;20047;-54
2022/08/13 11:12:16;;;;;;;9.68;2.63;;;;;;;35.58;32.28;100157.53;4983007;28;20134;-53
2022/08/13 11:14:48;;;;;;;4.47;3.03;;;;;;;35.61;32.41;100160.75;4980135;28;20042;-49
2022/08/13 11:17:17;;;;;;;5.03;3.17;;;;;;;35.61;31.50;100152.69;4980717;28;20050;-52
2022/08/13 11:20:06;;;;;;;7.95;2.90;;;;;;;35.55;31.59;100160.59;4973030;28;20058;-50
2022/08/13 11:22:34;;;;;;;3.85;2.63;;;;;;;35.51;32.06;100157.38;4987736;28;20512;-48
2022/08/13 11:25:03;;;;;;;4.13;3.15;;;;;;;35.46;31.39;100143.56;4982958;28;20039;-51
2022/08/13 11:27:51;;;;;;;3.30;3.00;;;;;;;35.46;31.82;100151.66;4985294;28;20046;-53
2022/08/13 11:30:20;;;;;;;5.50;3.17;;;;;;;35.45;31.90;100147.28;4987050;28;20117;-51
2022/08/13 11:33:04;;;;;;;6.05;3.45;;;;;;;35.42;31.42;100151.13;4973377;28;20053;-54
2022/08/13 11:35:38;;;;;;;6.13;3.28;;;;;;;35.42;31.63;100144.91;4975920;28;20418;-48
2022/08/13 11:38:07;;;;;;;4.97;3.03;;;;;;;35.44;30.99;100143.72;4984283;28;20050;-50
2022/08/13 11:40:35;;;;;;;3.25;2.90;;;;;;;35.43;31.51;100135.81;4980396;28;20046;-48
2022/08/13 11:43:05;;;;;;;5.25;4.50;;;;;;;35.42;30.84;100139.53;4984988;28;20482;-55
2022/08/13 11:45:44;;;;;;;3.67;2.88;;;;;;;35.40;31.54;100130.75;4978283;28;20043;-51
2022/08/13 11:48:14;;;;;;;6.80;3.40;;;;;;;35.37;31.07;100132.78;4981663;28;20463;-48
2022/08/13 11:50:55;;;;;;;4.18;3.10;;;;;;;35.30;31.75;100130.91;4985095;28;20053;-48
2022/08/13 11:53:25;;;;;;;4.32;2.65;;;;;;;35.37;31.52;100131.94;4985757;28;20179;-51
2022/08/13 11:55:55;;;;;;;6.97;3.42;;;;;;;35.51;31.56;100128.59;4979558;28;20046;-53
2022/08/13 11:58:31;;;;;;;4.47;3.00;;;;;;;35.57;31.18;100132.47;4983973;28;20076;-51
2022/08/13 12:01:18;;;;;;;;;;;;;;;35.40;30.67;100126.22;4976406;28;20076;-55
2022/08/13 12:03:53;;;;;;;5.03;2.85;;;;;;;35.53;31.00;100123.06;4977135;28;19953;-53
2022/08/13 12:06:41;;;;;;;6.18;2.90;;;;;;;35.51;30.68;100114.28;4983828;28;20074;-53
2022/08/13 12:09:14;;;;;;;4.70;2.88;;;;;;;35.56;30.80;100109.22;4984171;28;20051;-50
2022/08/13 12:12:00;;;;;;;7.20;2.88;;;;;;;35.61;30.28;100112.28;4978028;28;20091;-52
2022/08/13 12:14:36;;;;;;;;;;;;;;;35.42;30.10;100101.84;4978966;28;20125;-48
2022/08/13 12:17:02;;;;;;;3.78;2.65;;;;;;;35.52;29.63;100097.09;4985986;28;20429;-51
2022/08/13 12:19:29;;;;;;;3.70;2.90;;;;;;;35.57;30.52;100100.16;4985277;28;20077;-51
2022/08/13 12:21:56;;;;;;;5.90;2.78;;;;;;;35.62;29.07;100103.19;4986105;28;20058;-51
2022/08/13 12:24:23;;;;;;;4.75;2.80;;;;;;;35.66;30.10;100098.31;4978164;28;20139;-51